createdAt,value
2018-09-28T00:00:49.143Z,101013.72
2018-09-28T00:03:13.113Z,101017.05
2018-09-28T00:05:37.069Z,101021.91
2018-09-28T00:08:00.930Z,101016.95
2018-09-28T00:10:24.787Z,101021.97
2018-09-28T00:12:48.668Z,101018.48
2018-09-28T00:15:12.543Z,101024.77
2018-09-28T00:17:36.361Z,101022.09
2018-09-28T00:20:00.246Z,101017.64
2018-09-28T00:22:24.124Z,101019.56
2018-09-28T00:24:47.987Z,101015.95
2018-09-28T00:27:11.871Z,101013.13
2018-09-28T00:29:35.720Z,101018.92
2018-09-28T00:31:59.614Z,101010.97
2018-09-28T00:34:23.497Z,101001.84
2018-09-28T00:36:47.356Z,101003.65
2018-09-28T00:39:11.639Z,101008.39
2018-09-28T00:41:35.479Z,101002.67
2018-09-28T00:43:59.354Z,100996.34
2018-09-28T00:46:23.282Z,100997.10
2018-09-28T00:48:47.129Z,100990.80
2018-09-28T00:51:11.030Z,100993.72
2018-09-28T00:53:34.898Z,100992.30
2018-09-28T00:55:58.753Z,100996.14
2018-09-28T00:58:22.947Z,101002.75
2018-09-28T01:00:46.868Z,101002.52
2018-09-28T01:03:10.715Z,101007.33
2018-09-28T01:05:34.616Z,101004.45
2018-09-28T01:07:58.493Z,101004.84
2018-09-28T01:10:22.380Z,101007.13
2018-09-28T01:12:46.293Z,101001.15
2018-09-28T01:15:10.155Z,101001.56
2018-09-28T01:17:34.072Z,100998.50
2018-09-28T01:19:57.956Z,100996.49
2018-09-28T01:22:21.816Z,100988.83
2018-09-28T01:24:45.724Z,100997.47
2018-09-28T01:27:09.573Z,101001.35
2018-09-28T01:29:33.406Z,101001.22
2018-09-28T01:31:57.354Z,101005.01
2018-09-28T01:34:21.265Z,101002.75
2018-09-28T01:36:45.135Z,101006.06
2018-09-28T01:39:09.863Z,100998.47
2018-09-28T01:41:33.743Z,100997.05
2018-09-28T01:43:57.643Z,101001.08
2018-09-28T01:46:21.517Z,101003.06
2018-09-28T01:48:45.392Z,101002.97
2018-09-28T01:51:09.266Z,100998.52
2018-09-28T01:53:33.162Z,101011.81
2018-09-28T01:55:57.036Z,101005.58
2018-09-28T01:58:20.891Z,101009.52
2018-09-28T02:00:44.777Z,101007.59
2018-09-28T02:03:08.628Z,101004.14
2018-09-28T02:05:32.510Z,101002.23
2018-09-28T02:07:56.376Z,101003.02
2018-09-28T02:10:20.251Z,101008.16
2018-09-28T02:12:44.100Z,101007.98
2018-09-28T02:15:08.128Z,101008.00
2018-09-28T02:17:31.977Z,101012.91
2018-09-28T02:19:55.866Z,101016.19
2018-09-28T02:22:19.739Z,101020.16
2018-09-28T02:24:43.599Z,101019.95
2018-09-28T02:27:07.480Z,101018.05
2018-09-28T02:29:31.339Z,101023.76
2018-09-28T02:31:55.263Z,101022.92
2018-09-28T02:34:19.080Z,101013.65
2018-09-28T02:36:42.963Z,101006.95
2018-09-28T02:39:07.658Z,101016.52
2018-09-28T02:41:31.547Z,101010.72
2018-09-28T02:43:55.445Z,101025.56
2018-09-28T02:46:19.296Z,101024.48
2018-09-28T02:48:43.139Z,101020.93
2018-09-28T02:51:07.136Z,101023.87
2018-09-28T02:53:31.000Z,101026.30
2018-09-28T02:55:54.877Z,101026.08
2018-09-28T02:58:18.750Z,101024.42
2018-09-28T03:00:42.640Z,101026.89
2018-09-28T03:03:06.662Z,101023.19
2018-09-28T03:05:30.516Z,101027.63
2018-09-28T03:07:54.363Z,101032.56
2018-09-28T03:10:18.223Z,101025.73
2018-09-28T03:12:42.108Z,101032.12
2018-09-28T03:15:06.006Z,101020.81
2018-09-28T03:17:29.878Z,101025.13
2018-09-28T03:19:53.801Z,101029.01
2018-09-28T03:22:17.635Z,101029.98
2018-09-28T03:24:41.519Z,101028.98
2018-09-28T03:27:05.410Z,101029.48
2018-09-28T03:29:29.297Z,101030.50
2018-09-28T03:31:53.234Z,101036.01
2018-09-28T03:34:17.111Z,101038.23
2018-09-28T03:36:40.989Z,101042.69
2018-09-28T03:39:06.401Z,101043.48
2018-09-28T03:41:30.315Z,101043.21
2018-09-28T03:43:54.232Z,101040.53
2018-09-28T03:46:18.146Z,101044.74
2018-09-28T03:48:42.027Z,101023.31
2018-09-28T03:51:05.991Z,101052.96
2018-09-28T03:53:29.856Z,101049.98
2018-09-28T03:55:53.750Z,101052.39
2018-09-28T03:58:17.660Z,101053.73
2018-09-28T04:00:41.534Z,101054.53
2018-09-28T04:03:05.477Z,101045.42
2018-09-28T04:05:29.280Z,101052.70
2018-09-28T04:07:53.163Z,101060.23
2018-09-28T04:10:17.110Z,101059.50
2018-09-28T04:12:41.020Z,101066.91
2018-09-28T04:15:04.960Z,101065.09
2018-09-28T04:17:28.815Z,101067.45
2018-09-28T04:19:52.997Z,101070.53
2018-09-28T04:22:16.855Z,101081.45
2018-09-28T04:24:40.732Z,101086.64
2018-09-28T04:27:04.601Z,101088.91
2018-09-28T04:29:28.564Z,101098.84
2018-09-28T04:31:52.667Z,101100.95
2018-09-28T04:34:16.606Z,101092.89
2018-09-28T04:36:40.494Z,101103.14
2018-09-28T04:39:05.240Z,101102.03
2018-09-28T04:41:29.215Z,101105.84
2018-09-28T04:43:53.107Z,101116.91
2018-09-28T04:46:16.983Z,101119.75
2018-09-28T04:48:40.979Z,101123.91
2018-09-28T04:51:05.044Z,101118.28
2018-09-28T04:53:28.942Z,101125.81
2018-09-28T04:55:52.787Z,101122.54
2018-09-28T04:58:16.616Z,101131.03
2018-09-28T05:00:40.489Z,101132.05
2018-09-28T05:03:04.339Z,101141.22
2018-09-28T05:05:28.309Z,101142.39
2018-09-28T05:07:52.224Z,101146.89
2018-09-28T05:10:16.071Z,101154.45
2018-09-28T05:12:40.012Z,101162.36
2018-09-28T05:15:03.871Z,101166.75
2018-09-28T05:17:27.804Z,101116.41
2018-09-28T05:19:51.649Z,101170.40
2018-09-28T05:22:15.611Z,101175.36
2018-09-28T05:24:39.495Z,101174.91
2018-09-28T05:27:03.531Z,101182.98
2018-09-28T05:29:27.440Z,101191.25
2018-09-28T05:31:51.506Z,101196.75
2018-09-28T05:34:15.340Z,101209.43
2018-09-28T05:36:39.243Z,101208.68
2018-09-28T05:39:03.104Z,101219.30
2018-09-28T05:41:26.976Z,101220.34
2018-09-28T05:43:50.926Z,101228.33
2018-09-28T05:46:14.861Z,101229.45
2018-09-28T05:48:38.815Z,101239.03
2018-09-28T05:51:02.676Z,101249.22
2018-09-28T05:53:26.532Z,101247.42
2018-09-28T05:55:50.410Z,101255.60
2018-09-28T05:58:19.606Z,101254.44
2018-09-28T06:00:48.892Z,101263.31
2018-09-28T06:03:14.554Z,101263.10
2018-09-28T06:05:41.774Z,101271.69
2018-09-28T06:08:05.727Z,101279.42
2018-09-28T06:10:29.622Z,101286.09
2018-09-28T06:12:53.430Z,101285.58
2018-09-28T06:15:17.470Z,101286.82
2018-09-28T06:17:41.343Z,101290.46
2018-09-28T06:20:05.474Z,101291.97
2018-09-28T06:22:29.314Z,101300.27
2018-09-28T06:24:53.151Z,101303.58
2018-09-28T06:27:16.991Z,101307.91
2018-09-28T06:29:40.980Z,101317.41
2018-09-28T06:32:04.795Z,101324.09
2018-09-28T06:34:28.666Z,101323.19
2018-09-28T06:36:52.537Z,101327.41
2018-09-28T06:39:16.401Z,101325.94
2018-09-28T06:41:40.349Z,101326.17
2018-09-28T06:44:04.252Z,101331.92
2018-09-28T06:46:28.152Z,101337.02
2018-09-28T06:48:51.996Z,101339.03
2018-09-28T06:51:15.905Z,101348.59
2018-09-28T06:53:40.268Z,101344.70
2018-09-28T06:56:04.122Z,101348.81
2018-09-28T06:58:28.104Z,101355.20
2018-09-28T07:00:51.969Z,101355.50
2018-09-28T07:03:15.863Z,101369.23
2018-09-28T07:05:39.771Z,101363.91
2018-09-28T07:08:03.598Z,101365.58
2018-09-28T07:10:27.534Z,101367.53
2018-09-28T07:12:51.396Z,101384.17
2018-09-28T07:15:15.263Z,101386.33
2018-09-28T07:17:39.184Z,101386.13
2018-09-28T07:20:03.007Z,101387.53
2018-09-28T07:22:26.902Z,101397.77
2018-09-28T07:24:51.022Z,101398.73
2018-09-28T07:27:14.837Z,101404.15
2018-09-28T07:29:38.703Z,101404.25
2018-09-28T07:32:02.563Z,101408.49
2018-09-28T07:34:26.480Z,101403.23
2018-09-28T07:36:50.436Z,101410.81
2018-09-28T07:39:14.384Z,101417.05
2018-09-28T07:41:39.876Z,101429.58
2018-09-28T07:44:04.617Z,101417.72
2018-09-28T07:46:28.488Z,101419.63
2018-09-28T07:48:52.355Z,101422.20
2018-09-28T07:51:16.238Z,101430.13
2018-09-28T07:53:40.110Z,101430.75
2018-09-28T07:56:03.994Z,101433.52
2018-09-28T07:58:27.855Z,101437.13
2018-09-28T08:00:51.778Z,101440.37
2018-09-28T08:03:15.676Z,101444.70
2018-09-28T08:05:39.569Z,101454.61
2018-09-28T08:08:03.412Z,101449.84
2018-09-28T08:10:27.304Z,101441.19
2018-09-28T08:12:51.155Z,101443.08
2018-09-28T08:15:15.009Z,101442.59
2018-09-28T08:17:38.956Z,101448.34
2018-09-28T08:20:02.809Z,101450.48
2018-09-28T08:22:26.711Z,101459.54
2018-09-28T08:24:50.605Z,101458.84
2018-09-28T08:27:14.433Z,101469.67
2018-09-28T08:29:38.359Z,101466.88
2018-09-28T08:32:02.223Z,101468.49
2018-09-28T08:34:26.148Z,101474.63
2018-09-28T08:36:50.096Z,101472.36
2018-09-28T08:39:13.925Z,101479.22
2018-09-28T08:41:37.806Z,101485.61
2018-09-28T08:44:01.666Z,101482.00
2018-09-28T08:46:25.629Z,101484.08
2018-09-28T08:48:49.614Z,101489.85
2018-09-28T08:51:13.464Z,101495.28
2018-09-28T08:53:37.392Z,101486.74
2018-09-28T08:56:01.270Z,101478.91
2018-09-28T08:58:25.160Z,101484.64
2018-09-28T09:00:49.048Z,101479.37
2018-09-28T09:03:12.947Z,101487.55
2018-09-28T09:05:36.913Z,101485.89
2018-09-28T09:08:00.756Z,101488.98
2018-09-28T09:10:24.664Z,101486.08
2018-09-28T09:12:48.527Z,101483.98
2018-09-28T09:15:12.875Z,101496.17
2018-09-28T09:17:36.769Z,101485.38
2018-09-28T09:20:00.634Z,101482.77
2018-09-28T09:22:24.519Z,101486.67
2018-09-28T09:24:48.382Z,101489.91
2018-09-28T09:27:12.256Z,101502.66
2018-09-28T09:29:36.096Z,101500.76
2018-09-28T09:32:00.006Z,101498.64
2018-09-28T09:34:24.000Z,101499.06
2018-09-28T09:36:47.873Z,101500.95
2018-09-28T09:39:12.407Z,101488.95
2018-09-28T09:41:36.251Z,101499.44
2018-09-28T09:44:00.102Z,101493.42
2018-09-28T09:46:23.987Z,101490.59
2018-09-28T09:48:47.871Z,101493.02
2018-09-28T09:51:11.748Z,101497.05
2018-09-28T09:53:35.602Z,101500.95
2018-09-28T09:55:59.568Z,101504.05
2018-09-28T09:58:23.482Z,101497.71
2018-09-28T10:00:52.607Z,101501.75
2018-09-28T10:03:21.711Z,101518.14
2018-09-28T10:05:45.604Z,101511.40
2018-09-28T10:08:09.448Z,101502.97
2018-09-28T10:10:33.332Z,101514.39
2018-09-28T10:12:57.854Z,101512.38
2018-09-28T10:15:21.704Z,101508.25
2018-09-28T10:17:45.551Z,101512.16
2018-09-28T10:20:09.441Z,101509.16
2018-09-28T10:22:33.344Z,101505.97
2018-09-28T10:24:57.271Z,101515.69
2018-09-28T10:27:21.239Z,101514.26
2018-09-28T10:29:45.078Z,101508.87
2018-09-28T10:32:09.227Z,101506.92
2018-09-28T10:34:33.181Z,101507.94
2018-09-28T10:36:57.048Z,101512.86
2018-09-28T10:39:21.015Z,101508.30
2018-09-28T10:41:44.848Z,101507.89
2018-09-28T10:44:08.886Z,101507.34
2018-09-28T10:46:32.825Z,101509.74
2018-09-28T10:48:56.681Z,101505.40
2018-09-28T10:51:20.588Z,101505.98
2018-09-28T10:53:44.434Z,101506.96
2018-09-28T10:56:08.390Z,101509.13
2018-09-28T10:58:32.361Z,101499.59
2018-09-28T11:00:56.194Z,101510.41
2018-09-28T11:03:20.077Z,101509.92
2018-09-28T11:05:43.915Z,101510.91
2018-09-28T11:08:07.787Z,101513.14
2018-09-28T11:10:31.671Z,101510.98
2018-09-28T11:12:55.621Z,101499.60
2018-09-28T11:15:19.549Z,101504.42
2018-09-28T11:17:43.375Z,101495.22
2018-09-28T11:20:07.601Z,101499.55
2018-09-28T11:22:31.489Z,101499.55
2018-09-28T11:24:55.458Z,101502.72
2018-09-28T11:27:19.561Z,101510.88
2018-09-28T11:29:43.492Z,101508.48
2018-09-28T11:32:07.650Z,101505.55
2018-09-28T11:34:31.574Z,101508.18
2018-09-28T11:36:55.528Z,101514.94
2018-09-28T11:39:19.489Z,101509.92
2018-09-28T11:41:43.764Z,101523.48
2018-09-28T11:44:07.717Z,101513.70
2018-09-28T11:46:31.642Z,101519.62
2018-09-28T11:48:55.567Z,101518.69
2018-09-28T11:51:19.640Z,101533.67
2018-09-28T11:53:43.548Z,101533.77
2018-09-28T11:56:07.438Z,101520.69
2018-09-28T11:58:32.501Z,101525.53
2018-09-28T12:00:56.653Z,101521.75
2018-09-28T12:03:20.572Z,101523.63
2018-09-28T12:05:44.377Z,101523.17
2018-09-28T12:08:08.322Z,101530.27
2018-09-28T12:10:32.212Z,101518.27
2018-09-28T12:12:56.278Z,101521.86
2018-09-28T12:15:20.334Z,101518.45
2018-09-28T12:17:44.215Z,101525.12
2018-09-28T12:20:09.468Z,101526.50
2018-09-28T12:22:33.362Z,101525.67
2018-09-28T12:24:57.313Z,101517.87
2018-09-28T12:27:21.238Z,101527.17
2018-09-28T12:29:45.636Z,101524.55
2018-09-28T12:32:09.529Z,101520.60
2018-09-28T12:34:33.416Z,101525.36
2018-09-28T12:36:57.411Z,101526.58
2018-09-28T12:39:21.324Z,101524.28
2018-09-28T12:41:45.185Z,101517.84
2018-09-28T12:44:09.377Z,101525.95
2018-09-28T12:46:33.243Z,101523.14
2018-09-28T12:48:57.172Z,101529.47
2018-09-28T12:51:21.047Z,101537.30
2018-09-28T12:53:44.983Z,101536.16
2018-09-28T12:56:08.951Z,101536.05
2018-09-28T12:58:32.820Z,101535.72
2018-09-28T13:00:56.775Z,101533.34
2018-09-28T13:03:20.663Z,101536.95
2018-09-28T13:05:44.831Z,101529.86
2018-09-28T13:08:09.729Z,101540.94
2018-09-28T13:10:33.619Z,101531.47
2018-09-28T13:12:57.550Z,101533.66
2018-09-28T13:15:21.446Z,101537.92
2018-09-28T13:17:45.503Z,101531.39
2018-09-28T13:20:09.384Z,101530.00
2018-09-28T13:22:33.329Z,101540.06
2018-09-28T13:24:57.269Z,101527.97
2018-09-28T13:27:21.206Z,101543.22
2018-09-28T13:29:46.092Z,101545.14
2018-09-28T13:32:10.027Z,101543.95
2018-09-28T13:34:33.999Z,101551.02
2018-09-28T13:36:57.942Z,101548.44
2018-09-28T13:39:21.811Z,101544.27
2018-09-28T13:44:14.304Z,101546.23
2018-09-28T13:46:38.282Z,101544.02
2018-09-28T13:49:02.149Z,101551.39
2018-09-28T13:51:26.084Z,101558.52
2018-09-28T13:53:50.091Z,101558.59
2018-09-28T13:56:13.915Z,101552.71
2018-09-28T13:58:37.906Z,101555.44
2018-09-28T14:01:01.823Z,101561.11
2018-09-28T14:03:25.725Z,101554.85
2018-09-28T14:05:49.705Z,101557.30
2018-09-28T14:08:13.617Z,101562.11
2018-09-28T14:10:37.523Z,101572.94
2018-09-28T14:13:01.418Z,101572.84
2018-09-28T14:15:25.279Z,101572.15
2018-09-28T14:17:49.187Z,101561.83
2018-09-28T14:20:13.297Z,101570.95
2018-09-28T14:22:37.208Z,101567.61
2018-09-28T14:25:01.139Z,101564.44
2018-09-28T14:27:25.044Z,101574.84
2018-09-28T14:29:49.042Z,101584.42
2018-09-28T14:32:13.007Z,101576.53
2018-09-28T14:34:37.031Z,101572.34
2018-09-28T14:37:00.916Z,101569.03
2018-09-28T14:39:24.822Z,101566.69
2018-09-28T14:41:48.876Z,101567.86
2018-09-28T14:44:12.896Z,101571.59
2018-09-28T14:46:36.865Z,101554.45
2018-09-28T14:49:00.895Z,101573.34
2018-09-28T14:51:24.675Z,101573.40
2018-09-28T14:53:48.580Z,101567.40
2018-09-28T14:56:12.472Z,101575.31
2018-09-28T14:58:36.349Z,101574.16
2018-09-28T15:01:00.297Z,101579.45
2018-09-28T15:03:24.142Z,101566.28
2018-09-28T15:05:48.029Z,101574.90
2018-09-28T15:08:11.960Z,101578.94
2018-09-28T15:10:35.860Z,101579.59
2018-09-28T15:12:59.811Z,101582.27
2018-09-28T15:15:23.726Z,101582.11
2018-09-28T15:17:47.564Z,101585.59
2018-09-28T15:20:11.449Z,101586.98
2018-09-28T15:22:35.340Z,101578.18
2018-09-28T15:24:59.293Z,101584.17
2018-09-28T15:27:23.195Z,101581.45
2018-09-28T15:29:47.091Z,101584.70
2018-09-28T15:32:11.025Z,101590.44
2018-09-28T15:34:34.953Z,101587.37
2018-09-28T15:36:58.913Z,101594.68
2018-09-28T15:39:22.843Z,101592.02
2018-09-28T15:41:46.923Z,101584.01
2018-09-28T15:44:10.796Z,101588.31
2018-09-28T15:46:34.777Z,101586.17
2018-09-28T15:48:58.728Z,101589.75
2018-09-28T15:51:22.648Z,101591.98
2018-09-28T15:53:46.521Z,101588.98
2018-09-28T15:56:11.009Z,101597.09
2018-09-28T15:58:34.989Z,101591.72
2018-09-28T16:00:58.961Z,101589.55
2018-09-28T16:03:22.833Z,101595.90
2018-09-28T16:05:46.900Z,101600.14
2018-09-28T16:08:10.834Z,101591.84
2018-09-28T16:10:34.727Z,101602.87
2018-09-28T16:12:58.741Z,101598.81
2018-09-28T16:15:22.661Z,101597.25
2018-09-28T16:17:46.585Z,101598.34
2018-09-28T16:20:10.521Z,101601.30
2018-09-28T16:22:34.460Z,101603.34
2018-09-28T16:24:58.806Z,101601.13
2018-09-28T16:27:22.736Z,101602.89
2018-09-28T16:29:46.652Z,101606.39
2018-09-28T16:32:10.587Z,101621.06
2018-09-28T16:34:34.521Z,101621.93
2018-09-28T16:36:58.494Z,101631.30
2018-09-28T16:39:22.369Z,101633.96
2018-09-28T16:41:46.380Z,101633.55
2018-09-28T16:44:10.636Z,101649.77
2018-09-28T16:49:39.269Z,101652.58
2018-09-28T16:52:03.152Z,101654.61
2018-09-28T16:54:27.359Z,101666.91
2018-09-28T16:56:51.247Z,101669.72
2018-09-28T16:59:15.243Z,101670.34
2018-09-28T17:01:39.154Z,101670.43
2018-09-28T17:04:03.036Z,101676.64
2018-09-28T17:06:26.987Z,101673.09
2018-09-28T17:08:50.866Z,101673.09
2018-09-28T17:11:14.802Z,101676.77
2018-09-28T17:13:38.757Z,101673.81
2018-09-28T17:16:02.629Z,101681.59
2018-09-28T17:18:26.566Z,101688.30
2018-09-28T17:20:50.444Z,101693.26
2018-09-28T17:23:14.331Z,101695.18
2018-09-28T17:25:38.227Z,101704.45
2018-09-28T17:28:02.158Z,101713.34
2018-09-28T17:30:26.091Z,101708.12
2018-09-28T17:32:50.017Z,101722.90
2018-09-28T17:35:13.915Z,101726.64
2018-09-28T17:37:38.031Z,101722.43
2018-09-28T17:40:01.861Z,101717.63
2018-09-28T17:42:25.795Z,101727.25
2018-09-28T17:44:49.675Z,101729.09
2018-09-28T17:47:13.697Z,101729.59
2018-09-28T17:49:37.633Z,101741.55
2018-09-28T17:52:01.576Z,101737.16
2018-09-28T17:54:25.444Z,101749.96
2018-09-28T17:59:35.769Z,101755.53
2018-09-28T18:01:59.635Z,101757.89
2018-09-28T18:04:23.558Z,101763.02
2018-09-28T18:06:47.463Z,101772.04
2018-09-28T18:09:12.354Z,101775.03
2018-09-28T18:11:36.243Z,101770.45
2018-09-28T18:14:00.347Z,101772.91
2018-09-28T18:16:24.323Z,101781.56
2018-09-28T18:18:48.280Z,101784.94
2018-09-28T18:21:12.233Z,101789.77
2018-09-28T18:23:36.119Z,101782.33
2018-09-28T18:26:00.035Z,101784.89
2018-09-28T18:28:23.975Z,101791.09
2018-09-28T18:30:47.864Z,101794.44
2018-09-28T18:33:11.797Z,101797.71
2018-09-28T18:35:35.690Z,101801.48
2018-09-28T18:37:59.586Z,101802.72
2018-09-28T18:40:23.526Z,101811.09
2018-09-28T18:42:47.451Z,101806.80
2018-09-28T18:45:11.396Z,101809.92
2018-09-28T18:47:35.671Z,101806.19
2018-09-28T18:49:59.552Z,101803.28
2018-09-28T18:52:23.556Z,101803.76
2018-09-28T18:54:47.473Z,101804.16
2018-09-28T18:57:11.471Z,101807.31
2018-09-28T18:59:35.412Z,101813.98
2018-09-28T19:01:59.296Z,101810.27
2018-09-28T19:04:23.239Z,101812.05
2018-09-28T19:06:47.379Z,101805.44
2018-09-28T19:09:12.337Z,101810.72
2018-09-28T19:11:36.334Z,101817.59
2018-09-28T19:14:00.293Z,101820.13
2018-09-28T19:16:24.247Z,101829.20
2018-09-28T19:18:48.145Z,101823.61
2018-09-28T19:21:12.069Z,101830.67
2018-09-28T19:23:35.991Z,101824.09
2018-09-28T19:25:59.936Z,101822.59
2018-09-28T19:28:23.818Z,101823.41
2018-09-28T19:30:47.802Z,101825.33
2018-09-28T19:33:11.709Z,101822.16
2018-09-28T19:35:35.699Z,101827.11
2018-09-28T19:37:59.823Z,101823.17
2018-09-28T19:40:23.731Z,101831.19
2018-09-28T19:42:47.678Z,101835.87
2018-09-28T19:45:11.630Z,101839.97
2018-09-28T19:47:35.559Z,101842.50
2018-09-28T19:49:59.513Z,101842.75
2018-09-28T19:52:23.404Z,101843.95
2018-09-28T19:54:47.256Z,101846.70
2018-09-28T19:57:11.209Z,101844.25
2018-09-28T19:59:35.115Z,101851.05
2018-09-28T20:01:59.052Z,101853.53
2018-09-28T20:04:22.956Z,101853.02
2018-09-28T20:06:46.838Z,101862.84
2018-09-28T20:09:11.963Z,101862.27
2018-09-28T20:11:35.826Z,101862.97
2018-09-28T20:13:59.709Z,101863.86
2018-09-28T20:16:23.603Z,101868.38
2018-09-28T20:18:47.558Z,101870.13
2018-09-28T20:21:11.996Z,101873.34
2018-09-28T20:23:35.904Z,101882.72
2018-09-28T20:25:59.766Z,101886.92
2018-09-28T20:28:23.790Z,101887.54
2018-09-28T20:30:47.670Z,101887.02
2018-09-28T20:33:11.607Z,101891.53
2018-09-28T20:35:35.522Z,101895.63
2018-09-28T20:37:59.419Z,101903.11
2018-09-28T20:40:23.331Z,101903.77
2018-09-28T20:42:47.212Z,101909.42
2018-09-28T20:45:11.165Z,101915.80
2018-09-28T20:47:35.060Z,101907.96
2018-09-28T20:49:58.987Z,101910.34
2018-09-28T20:52:22.883Z,101909.47
2018-09-28T20:54:46.760Z,101913.41
2018-09-28T20:57:10.689Z,101917.63
2018-09-28T20:59:34.616Z,101923.03
2018-09-28T21:01:58.527Z,101910.86
2018-09-28T21:04:23.097Z,101917.46
2018-09-28T21:06:46.985Z,101919.32
2018-09-28T21:09:11.524Z,101920.72
2018-09-28T21:11:35.415Z,101928.25
2018-09-28T21:13:59.321Z,101924.53
2018-09-28T21:16:23.218Z,101929.34
2018-09-28T21:18:47.135Z,101933.56
2018-09-28T21:21:11.092Z,101946.67
2018-09-28T21:23:35.006Z,101944.58
2018-09-28T21:25:58.854Z,101953.38
2018-09-28T21:28:22.977Z,101951.25
2018-09-28T21:30:46.864Z,101942.80
2018-09-28T21:33:10.803Z,101941.33
2018-09-28T21:35:34.713Z,101946.83
2018-09-28T21:37:58.609Z,101951.98
2018-09-28T21:40:22.521Z,101949.16
2018-09-28T21:42:46.608Z,101953.80
2018-09-28T21:45:10.549Z,101955.20
2018-09-28T21:47:34.862Z,101956.80
2018-09-28T21:49:58.778Z,101959.78
2018-09-28T21:52:22.655Z,101953.41
2018-09-28T21:54:46.543Z,101958.09
2018-09-28T21:57:10.505Z,101961.68
2018-09-28T21:59:34.389Z,101960.83
2018-09-28T22:01:58.310Z,101964.48
2018-09-28T22:04:22.396Z,101969.81
2018-09-28T22:06:46.288Z,101967.42
2018-09-28T22:09:10.176Z,101966.16
2018-09-28T22:11:34.070Z,101958.69
2018-09-28T22:13:58.035Z,101961.73
2018-09-28T22:16:21.848Z,101959.93
2018-09-28T22:18:45.750Z,101966.38
2018-09-28T22:21:09.627Z,101968.58
2018-09-28T22:23:33.498Z,101970.14
2018-09-28T22:25:57.428Z,101969.33
2018-09-28T22:28:21.505Z,101976.37
2018-09-28T22:30:45.464Z,101980.70
2018-09-28T22:33:09.358Z,101984.62
2018-09-28T22:35:33.475Z,101982.26
2018-09-28T22:37:57.402Z,101985.15
2018-09-28T22:40:21.339Z,101990.52
2018-09-28T22:42:45.265Z,101986.23
2018-09-28T22:45:10.452Z,101975.25
2018-09-28T22:47:34.371Z,101979.77
2018-09-28T22:49:58.290Z,101986.45
2018-09-28T22:52:22.127Z,101988.72
2018-09-28T22:54:46.044Z,101990.56
2018-09-28T22:57:10.440Z,101986.98
2018-09-28T22:59:34.298Z,101985.05
2018-09-28T23:01:58.272Z,101992.95
2018-09-28T23:04:22.183Z,101995.22
2018-09-28T23:06:46.049Z,102004.14
2018-09-28T23:09:10.280Z,101999.72
2018-09-28T23:11:34.124Z,101995.31
2018-09-28T23:13:57.980Z,101990.41
2018-09-28T23:16:21.833Z,101979.66
2018-09-28T23:18:45.848Z,101979.88
2018-09-28T23:21:09.758Z,101984.67
2018-09-28T23:23:33.802Z,101988.17
2018-09-28T23:25:57.727Z,101987.52
2018-09-28T23:28:21.766Z,101996.77
2018-09-28T23:30:45.630Z,102001.42
2018-09-28T23:33:09.528Z,102002.47
2018-09-28T23:35:33.419Z,102000.19
2018-09-28T23:37:57.311Z,101999.19
2018-09-28T23:40:21.178Z,102003.23
2018-09-28T23:42:45.037Z,102010.73
2018-09-28T23:45:09.028Z,102014.44
2018-09-28T23:47:32.906Z,102020.42
2018-09-28T23:49:56.973Z,102022.52
2018-09-28T23:52:20.843Z,102024.77
2018-09-28T23:54:44.705Z,102023.15
2018-09-28T23:57:08.736Z,102024.08
2018-09-28T23:59:32.730Z,102024.96
